Decoded Metar for KHUA (REDSTONE in AL, USA) (IATA:HUA) | Meteo·Mobile Aviation Weather
aviador You're here:

KHUA Decoded Metar

REDSTONE in AL, USA
Report Time2019-05-22 06:58:00
UTC Time2019-05-22 07:54:25
Flight Rules vfr VFR
Wind190° at 06 kt
W.Decomp.*RWY 17: 5.5 kt HW 2.4 kt RCW
Visibility9999 m
Phenomena:N/A
Clouds:N/A
Expected CloudBase > 2,000 ft AGL from Temp-Dew spread
CeilingNone
Temp21°C (ISA +7)
Dew Point16°C (73% RH)
AAT20.8°C
QNH1014 hPa
Density Alt1,755 ft
Elevation686 ft
Report Wrong Elevation
Raw Report
KHUA 220658Z AUTO 19006KT 9SM CLR 21/16 A2994 RMK AO2 SLP133 P0000
T02120161=

Extra information for KHUA:More info

Metar Taf Metar & Taf Last 4 Metars F.Rules Stats Wind Profile Meteogram Temp Stats Airport Information Weather charts Add Link Nearby VenuesMetar ALERT Operation Metar Decoded Social comments

AIRNAV info for KHUA